sensor_id;sensor_type;location;lat;lon;timestamp;P1;durP1;ratioP1;P2;durP2;ratioP2
65096;SDS011;51686;46.758;4.356;2022-11-20T00:02:21;16.40;;;8.48;;
65096;SDS011;51686;46.758;4.356;2022-11-20T00:05:12;17.02;;;8.63;;
65096;SDS011;51686;46.758;4.356;2022-11-20T00:07:58;18.83;;;9.57;;
65096;SDS011;51686;46.758;4.356;2022-11-20T00:10:45;16.40;;;8.77;;
65096;SDS011;51686;46.758;4.356;2022-11-20T00:13:38;19.00;;;9.48;;
65096;SDS011;51686;46.758;4.356;2022-11-20T00:16:30;18.73;;;9.45;;
65096;SDS011;51686;46.758;4.356;2022-11-20T00:19:24;18.33;;;9.00;;
65096;SDS011;51686;46.758;4.356;2022-11-20T00:22:12;16.83;;;8.93;;
65096;SDS011;51686;46.758;4.356;2022-11-20T00:25:00;19.35;;;9.63;;
65096;SDS011;51686;46.758;4.356;2022-11-20T00:27:56;18.25;;;9.25;;
65096;SDS011;51686;46.758;4.356;2022-11-20T00:30:43;18.80;;;9.43;;
65096;SDS011;51686;46.758;4.356;2022-11-20T00:33:32;17.08;;;8.55;;
65096;SDS011;51686;46.758;4.356;2022-11-20T00:36:22;17.10;;;9.18;;
65096;SDS011;51686;46.758;4.356;2022-11-20T00:39:12;19.13;;;9.55;;
65096;SDS011;51686;46.758;4.356;2022-11-20T00:41:59;18.27;;;9.10;;
65096;SDS011;51686;46.758;4.356;2022-11-20T00:44:49;19.13;;;9.30;;
65096;SDS011;51686;46.758;4.356;2022-11-20T00:47:36;15.73;;;8.35;;
65096;SDS011;51686;46.758;4.356;2022-11-20T00:50:23;18.02;;;9.02;;
65096;SDS011;51686;46.758;4.356;2022-11-20T00:53:11;17.15;;;9.00;;
65096;SDS011;51686;46.758;4.356;2022-11-20T00:56:00;16.38;;;9.38;;
65096;SDS011;51686;46.758;4.356;2022-11-20T00:58:59;19.27;;;10.05;;
65096;SDS011;51686;46.758;4.356;2022-11-20T01:01:47;17.90;;;9.48;;
65096;SDS011;51686;46.758;4.356;2022-11-20T01:04:36;17.83;;;9.02;;
65096;SDS011;51686;46.758;4.356;2022-11-20T01:07:23;19.65;;;9.57;;
65096;SDS011;51686;46.758;4.356;2022-11-20T01:10:13;17.23;;;8.95;;
65096;SDS011;51686;46.758;4.356;2022-11-20T01:13:00;16.70;;;8.85;;
65096;SDS011;51686;46.758;4.356;2022-11-20T01:16:12;18.05;;;9.40;;
65096;SDS011;51686;46.758;4.356;2022-11-20T01:19:01;17.83;;;9.20;;
65096;SDS011;51686;46.758;4.356;2022-11-20T01:21:52;17.42;;;8.95;;
65096;SDS011;51686;46.758;4.356;2022-11-20T01:24:41;18.13;;;8.93;;
65096;SDS011;51686;46.758;4.356;2022-11-20T01:27:33;17.88;;;9.13;;
65096;SDS011;51686;46.758;4.356;2022-11-20T01:30:22;18.45;;;9.73;;
65096;SDS011;51686;46.758;4.356;2022-11-20T01:33:09;19.02;;;9.77;;
65096;SDS011;51686;46.758;4.356;2022-11-20T01:36:03;17.58;;;9.02;;
65096;SDS011;51686;46.758;4.356;2022-11-20T01:38:53;18.05;;;9.88;;
65096;SDS011;51686;46.758;4.356;2022-11-20T01:41:41;17.05;;;8.60;;
65096;SDS011;51686;46.758;4.356;2022-11-20T01:44:54;17.77;;;9.35;;
65096;SDS011;51686;46.758;4.356;2022-11-20T01:47:44;18.95;;;9.02;;
65096;SDS011;51686;46.758;4.356;2022-11-20T01:50:35;17.85;;;9.00;;
65096;SDS011;51686;46.758;4.356;2022-11-20T01:53:26;18.75;;;9.30;;
65096;SDS011;51686;46.758;4.356;2022-11-20T01:56:15;18.35;;;9.65;;
65096;SDS011;51686;46.758;4.356;2022-11-20T01:59:03;17.63;;;9.50;;
65096;SDS011;51686;46.758;4.356;2022-11-20T02:01:50;18.65;;;9.10;;
65096;SDS011;51686;46.758;4.356;2022-11-20T02:04:37;17.50;;;9.02;;
65096;SDS011;51686;46.758;4.356;2022-11-20T02:07:25;16.75;;;8.38;;
65096;SDS011;51686;46.758;4.356;2022-11-20T02:10:13;17.20;;;9.18;;
65096;SDS011;51686;46.758;4.356;2022-11-20T02:13:00;16.92;;;8.13;;
65096;SDS011;51686;46.758;4.356;2022-11-20T02:16:08;17.65;;;8.93;;
65096;SDS011;51686;46.758;4.356;2022-11-20T02:19:01;16.52;;;8.63;;
65096;SDS011;51686;46.758;4.356;2022-11-20T02:21:53;16.92;;;8.80;;
65096;SDS011;51686;46.758;4.356;2022-11-20T02:24:49;18.00;;;9.23;;
65096;SDS011;51686;46.758;4.356;2022-11-20T02:27:37;17.02;;;8.77;;
65096;SDS011;51686;46.758;4.356;2022-11-20T02:30:24;17.63;;;8.65;;
65096;SDS011;51686;46.758;4.356;2022-11-20T02:33:11;19.92;;;9.68;;
65096;SDS011;51686;46.758;4.356;2022-11-20T02:36:00;17.75;;;9.35;;
65096;SDS011;51686;46.758;4.356;2022-11-20T02:38:47;18.85;;;9.40;;
65096;SDS011;51686;46.758;4.356;2022-11-20T02:41:35;17.80;;;8.50;;
65096;SDS011;51686;46.758;4.356;2022-11-20T02:44:23;19.25;;;9.73;;
65096;SDS011;51686;46.758;4.356;2022-11-20T02:47:12;19.00;;;9.30;;
65096;SDS011;51686;46.758;4.356;2022-11-20T02:50:02;18.95;;;9.57;;
65096;SDS011;51686;46.758;4.356;2022-11-20T02:52:50;18.08;;;9.05;;
65096;SDS011;51686;46.758;4.356;2022-11-20T02:55:37;19.40;;;9.60;;
65096;SDS011;51686;46.758;4.356;2022-11-20T02:58:26;19.60;;;9.77;;
65096;SDS011;51686;46.758;4.356;2022-11-20T03:01:13;18.05;;;8.73;;
65096;SDS011;51686;46.758;4.356;2022-11-20T03:04:00;19.65;;;9.23;;
65096;SDS011;51686;46.758;4.356;2022-11-20T03:06:47;19.08;;;9.63;;
65096;SDS011;51686;46.758;4.356;2022-11-20T03:09:34;19.02;;;9.35;;
65096;SDS011;51686;46.758;4.356;2022-11-20T03:15:13;18.60;;;9.85;;
65096;SDS011;51686;46.758;4.356;2022-11-20T03:18:00;18.40;;;9.73;;
65096;SDS011;51686;46.758;4.356;2022-11-20T03:20:47;17.20;;;8.85;;
65096;SDS011;51686;46.758;4.356;2022-11-20T03:23:34;19.17;;;9.80;;
65096;SDS011;51686;46.758;4.356;2022-11-20T03:26:22;18.25;;;9.10;;
65096;SDS011;51686;46.758;4.356;2022-11-20T03:29:10;18.55;;;8.90;;
65096;SDS011;51686;46.758;4.356;2022-11-20T03:31:57;20.10;;;9.60;;
65096;SDS011;51686;46.758;4.356;2022-11-20T03:34:44;19.35;;;9.80;;
65096;SDS011;51686;46.758;4.356;2022-11-20T03:37:31;18.60;;;8.98;;
65096;SDS011;51686;46.758;4.356;2022-11-20T03:40:21;17.55;;;9.18;;
65096;SDS011;51686;46.758;4.356;2022-11-20T03:43:09;18.88;;;9.00;;
65096;SDS011;51686;46.758;4.356;2022-11-20T03:45:56;17.83;;;8.57;;
65096;SDS011;51686;46.758;4.356;2022-11-20T03:48:43;18.60;;;9.10;;
65096;SDS011;51686;46.758;4.356;2022-11-20T03:51:36;17.73;;;8.68;;
65096;SDS011;51686;46.758;4.356;2022-11-20T03:54:23;18.73;;;9.20;;
65096;SDS011;51686;46.758;4.356;2022-11-20T03:57:10;20.85;;;9.82;;
65096;SDS011;51686;46.758;4.356;2022-11-20T03:59:57;16.65;;;8.13;;
65096;SDS011;51686;46.758;4.356;2022-11-20T04:02:44;19.40;;;9.55;;
65096;SDS011;51686;46.758;4.356;2022-11-20T04:05:32;18.45;;;9.43;;
65096;SDS011;51686;46.758;4.356;2022-11-20T04:08:20;22.27;;;10.00;;
65096;SDS011;51686;46.758;4.356;2022-11-20T04:11:22;18.52;;;9.23;;
65096;SDS011;51686;46.758;4.356;2022-11-20T04:14:12;19.10;;;9.35;;
65096;SDS011;51686;46.758;4.356;2022-11-20T04:17:00;18.38;;;9.02;;
65096;SDS011;51686;46.758;4.356;2022-11-20T04:19:47;18.83;;;9.23;;
65096;SDS011;51686;46.758;4.356;2022-11-20T04:22:34;18.52;;;9.05;;
65096;SDS011;51686;46.758;4.356;2022-11-20T04:25:21;18.70;;;9.32;;
65096;SDS011;51686;46.758;4.356;2022-11-20T04:28:08;19.95;;;9.15;;
65096;SDS011;51686;46.758;4.356;2022-11-20T04:31:00;19.42;;;9.40;;
65096;SDS011;51686;46.758;4.356;2022-11-20T04:33:51;17.52;;;8.70;;
65096;SDS011;51686;46.758;4.356;2022-11-20T04:36:38;19.30;;;9.18;;
65096;SDS011;51686;46.758;4.356;2022-11-20T04:39:25;16.80;;;8.45;;
65096;SDS011;51686;46.758;4.356;2022-11-20T04:42:15;18.25;;;9.15;;
65096;SDS011;51686;46.758;4.356;2022-11-20T04:45:17;16.27;;;8.55;;
65096;SDS011;51686;46.758;4.356;2022-11-20T04:48:04;18.83;;;9.30;;
65096;SDS011;51686;46.758;4.356;2022-11-20T04:50:51;16.20;;;8.93;;
65096;SDS011;51686;46.758;4.356;2022-11-20T04:53:38;18.35;;;9.20;;
65096;SDS011;51686;46.758;4.356;2022-11-20T04:56:25;19.33;;;9.18;;
65096;SDS011;51686;46.758;4.356;2022-11-20T04:59:12;17.15;;;9.00;;
65096;SDS011;51686;46.758;4.356;2022-11-20T05:01:58;18.15;;;8.73;;
65096;SDS011;51686;46.758;4.356;2022-11-20T05:04:45;17.40;;;8.85;;
65096;SDS011;51686;46.758;4.356;2022-11-20T05:07:32;17.17;;;8.25;;
65096;SDS011;51686;46.758;4.356;2022-11-20T05:10:19;17.92;;;9.02;;
65096;SDS011;51686;46.758;4.356;2022-11-20T05:13:06;19.80;;;9.50;;
65096;SDS011;51686;46.758;4.356;2022-11-20T05:16:00;17.63;;;8.50;;
65096;SDS011;51686;46.758;4.356;2022-11-20T05:18:48;20.35;;;9.25;;
65096;SDS011;51686;46.758;4.356;2022-11-20T05:21:36;16.80;;;8.38;;
65096;SDS011;51686;46.758;4.356;2022-11-20T05:24:22;17.48;;;8.48;;
65096;SDS011;51686;46.758;4.356;2022-11-20T05:27:09;19.63;;;9.50;;
65096;SDS011;51686;46.758;4.356;2022-11-20T05:29:56;19.85;;;9.57;;
65096;SDS011;51686;46.758;4.356;2022-11-20T05:32:43;16.90;;;8.52;;
65096;SDS011;51686;46.758;4.356;2022-11-20T05:35:30;18.38;;;8.30;;
65096;SDS011;51686;46.758;4.356;2022-11-20T05:38:17;17.02;;;8.80;;
65096;SDS011;51686;46.758;4.356;2022-11-20T05:41:10;18.45;;;9.80;;
65096;SDS011;51686;46.758;4.356;2022-11-20T05:44:01;17.73;;;8.70;;
65096;SDS011;51686;46.758;4.356;2022-11-20T05:46:48;16.25;;;8.30;;
65096;SDS011;51686;46.758;4.356;2022-11-20T05:49:34;16.98;;;8.20;;
65096;SDS011;51686;46.758;4.356;2022-11-20T05:52:21;18.15;;;8.77;;
65096;SDS011;51686;46.758;4.356;2022-11-20T05:55:08;18.40;;;9.15;;
65096;SDS011;51686;46.758;4.356;2022-11-20T05:57:55;17.27;;;8.90;;
65096;SDS011;51686;46.758;4.356;2022-11-20T06:00:42;17.65;;;8.40;;
65096;SDS011;51686;46.758;4.356;2022-11-20T06:03:29;17.50;;;8.63;;
65096;SDS011;51686;46.758;4.356;2022-11-20T06:06:16;18.52;;;9.02;;
65096;SDS011;51686;46.758;4.356;2022-11-20T06:09:06;19.20;;;9.20;;
65096;SDS011;51686;46.758;4.356;2022-11-20T06:11:52;15.50;;;7.68;;
65096;SDS011;51686;46.758;4.356;2022-11-20T06:14:39;17.90;;;8.45;;
65096;SDS011;51686;46.758;4.356;2022-11-20T06:17:26;17.90;;;8.75;;
65096;SDS011;51686;46.758;4.356;2022-11-20T06:20:13;16.52;;;8.68;;
65096;SDS011;51686;46.758;4.356;2022-11-20T06:23:00;17.45;;;9.00;;
65096;SDS011;51686;46.758;4.356;2022-11-20T06:25:48;15.77;;;8.20;;
65096;SDS011;51686;46.758;4.356;2022-11-20T06:28:35;15.57;;;8.00;;
65096;SDS011;51686;46.758;4.356;2022-11-20T06:35:40;18.67;;;8.82;;
65096;SDS011;51686;46.758;4.356;2022-11-20T06:38:45;17.20;;;8.77;;
65096;SDS011;51686;46.758;4.356;2022-11-20T06:41:47;16.33;;;8.40;;
65096;SDS011;51686;46.758;4.356;2022-11-20T06:44:57;17.10;;;8.38;;
65096;SDS011;51686;46.758;4.356;2022-11-20T06:48:06;17.40;;;8.88;;
65096;SDS011;51686;46.758;4.356;2022-11-20T06:54:18;15.98;;;8.10;;
65096;SDS011;51686;46.758;4.356;2022-11-20T07:00:08;15.98;;;8.68;;
65096;SDS011;51686;46.758;4.356;2022-11-20T07:03:18;16.70;;;8.07;;
65096;SDS011;51686;46.758;4.356;2022-11-20T07:06:08;17.85;;;8.32;;
65096;SDS011;51686;46.758;4.356;2022-11-20T07:09:01;17.88;;;8.30;;
65096;SDS011;51686;46.758;4.356;2022-11-20T07:11:56;15.10;;;8.02;;
65096;SDS011;51686;46.758;4.356;2022-11-20T07:14:43;15.77;;;8.05;;
65096;SDS011;51686;46.758;4.356;2022-11-20T07:17:30;18.35;;;9.23;;
65096;SDS011;51686;46.758;4.356;2022-11-20T07:20:28;18.17;;;9.57;;
65096;SDS011;51686;46.758;4.356;2022-11-20T07:23:29;16.80;;;8.30;;
65096;SDS011;51686;46.758;4.356;2022-11-20T07:26:16;17.92;;;9.15;;
65096;SDS011;51686;46.758;4.356;2022-11-20T07:29:03;17.33;;;8.38;;
65096;SDS011;51686;46.758;4.356;2022-11-20T07:31:49;18.05;;;8.50;;
65096;SDS011;51686;46.758;4.356;2022-11-20T07:34:37;17.42;;;9.02;;
65096;SDS011;51686;46.758;4.356;2022-11-20T07:37:23;15.85;;;8.25;;
65096;SDS011;51686;46.758;4.356;2022-11-20T07:40:11;17.58;;;9.00;;
65096;SDS011;51686;46.758;4.356;2022-11-20T07:42:58;15.88;;;8.18;;
65096;SDS011;51686;46.758;4.356;2022-11-20T07:45:47;15.77;;;7.97;;
65096;SDS011;51686;46.758;4.356;2022-11-20T07:48:36;15.30;;;7.95;;
65096;SDS011;51686;46.758;4.356;2022-11-20T07:51:24;17.98;;;8.82;;
65096;SDS011;51686;46.758;4.356;2022-11-20T07:54:16;18.27;;;8.55;;
65096;SDS011;51686;46.758;4.356;2022-11-20T07:57:03;19.30;;;9.15;;
65096;SDS011;51686;46.758;4.356;2022-11-20T07:59:50;17.42;;;9.00;;
65096;SDS011;51686;46.758;4.356;2022-11-20T08:02:37;17.52;;;8.38;;
65096;SDS011;51686;46.758;4.356;2022-11-20T08:05:25;17.30;;;8.63;;
65096;SDS011;51686;46.758;4.356;2022-11-20T08:08:15;16.95;;;8.77;;
65096;SDS011;51686;46.758;4.356;2022-11-20T08:11:07;17.08;;;7.97;;
65096;SDS011;51686;46.758;4.356;2022-11-20T08:14:12;17.13;;;8.55;;
65096;SDS011;51686;46.758;4.356;2022-11-20T08:16:59;16.73;;;8.18;;
65096;SDS011;51686;46.758;4.356;2022-11-20T08:19:46;16.50;;;8.90;;
65096;SDS011;51686;46.758;4.356;2022-11-20T08:22:34;16.90;;;8.15;;
65096;SDS011;51686;46.758;4.356;2022-11-20T08:25:21;17.90;;;9.20;;
65096;SDS011;51686;46.758;4.356;2022-11-20T08:28:08;16.20;;;8.38;;
65096;SDS011;51686;46.758;4.356;2022-11-20T08:31:07;17.95;;;8.98;;
65096;SDS011;51686;46.758;4.356;2022-11-20T08:33:56;16.73;;;8.35;;
65096;SDS011;51686;46.758;4.356;2022-11-20T08:36:54;18.65;;;8.38;;
65096;SDS011;51686;46.758;4.356;2022-11-20T08:39:41;16.40;;;8.07;;
65096;SDS011;51686;46.758;4.356;2022-11-20T08:42:28;16.45;;;7.60;;
65096;SDS011;51686;46.758;4.356;2022-11-20T08:45:15;17.60;;;9.02;;
65096;SDS011;51686;46.758;4.356;2022-11-20T08:48:02;18.58;;;9.13;;
65096;SDS011;51686;46.758;4.356;2022-11-20T08:50:51;16.58;;;7.70;;
65096;SDS011;51686;46.758;4.356;2022-11-20T08:53:38;16.15;;;8.10;;
65096;SDS011;51686;46.758;4.356;2022-11-20T08:56:25;16.90;;;8.43;;
65096;SDS011;51686;46.758;4.356;2022-11-20T08:59:12;16.38;;;8.13;;
65096;SDS011;51686;46.758;4.356;2022-11-20T09:02:18;17.73;;;8.77;;
65096;SDS011;51686;46.758;4.356;2022-11-20T09:05:07;17.23;;;7.95;;
65096;SDS011;51686;46.758;4.356;2022-11-20T09:07:57;15.52;;;7.63;;
65096;SDS011;51686;46.758;4.356;2022-11-20T09:10:44;15.80;;;7.93;;
65096;SDS011;51686;46.758;4.356;2022-11-20T09:13:32;17.20;;;8.07;;
65096;SDS011;51686;46.758;4.356;2022-11-20T09:16:20;15.70;;;8.07;;
65096;SDS011;51686;46.758;4.356;2022-11-20T09:19:06;15.63;;;7.68;;
65096;SDS011;51686;46.758;4.356;2022-11-20T09:22:13;18.35;;;8.35;;
65096;SDS011;51686;46.758;4.356;2022-11-20T09:25:00;18.35;;;8.82;;
65096;SDS011;51686;46.758;4.356;2022-11-20T09:27:47;17.42;;;8.95;;
65096;SDS011;51686;46.758;4.356;2022-11-20T09:30:34;16.70;;;8.02;;
65096;SDS011;51686;46.758;4.356;2022-11-20T09:33:24;16.95;;;8.48;;
65096;SDS011;51686;46.758;4.356;2022-11-20T09:36:11;18.17;;;9.50;;
65096;SDS011;51686;46.758;4.356;2022-11-20T09:38:58;16.88;;;8.40;;
65096;SDS011;51686;46.758;4.356;2022-11-20T09:41:55;17.70;;;9.27;;
65096;SDS011;51686;46.758;4.356;2022-11-20T09:48:10;18.27;;;8.93;;
65096;SDS011;51686;46.758;4.356;2022-11-20T09:51:23;17.70;;;8.27;;
65096;SDS011;51686;46.758;4.356;2022-11-20T09:54:18;17.07;;;8.53;;
65096;SDS011;51686;46.758;4.356;2022-11-20T09:57:13;16.88;;;8.52;;
65096;SDS011;51686;46.758;4.356;2022-11-20T10:00:12;17.05;;;8.32;;
65096;SDS011;51686;46.758;4.356;2022-11-20T10:03:11;16.80;;;8.90;;
65096;SDS011;51686;46.758;4.356;2022-11-20T10:06:01;16.67;;;8.57;;
65096;SDS011;51686;46.758;4.356;2022-11-20T10:08:53;17.88;;;8.75;;
65096;SDS011;51686;46.758;4.356;2022-11-20T10:12:03;19.00;;;9.27;;
65096;SDS011;51686;46.758;4.356;2022-11-20T10:18:11;17.55;;;8.82;;
65096;SDS011;51686;46.758;4.356;2022-11-20T10:24:03;17.33;;;8.80;;
65096;SDS011;51686;46.758;4.356;2022-11-20T10:27:28;18.17;;;8.98;;
65096;SDS011;51686;46.758;4.356;2022-11-20T10:31:00;15.48;;;8.00;;
65096;SDS011;51686;46.758;4.356;2022-11-20T10:33:49;17.10;;;8.95;;
65096;SDS011;51686;46.758;4.356;2022-11-20T10:36:58;18.38;;;9.07;;
65096;SDS011;51686;46.758;4.356;2022-11-20T10:43:04;19.08;;;9.32;;
65096;SDS011;51686;46.758;4.356;2022-11-20T10:46:05;16.15;;;8.45;;
65096;SDS011;51686;46.758;4.356;2022-11-20T10:49:35;16.30;;;8.50;;
65096;SDS011;51686;46.758;4.356;2022-11-20T11:00:14;15.60;;;7.30;;
65096;SDS011;51686;46.758;4.356;2022-11-20T11:03:22;14.63;;;7.70;;
65096;SDS011;51686;46.758;4.356;2022-11-20T11:17:46;15.48;;;7.60;;
65096;SDS011;51686;46.758;4.356;2022-11-20T11:20:49;14.75;;;7.88;;
65096;SDS011;51686;46.758;4.356;2022-11-20T11:23:44;15.65;;;8.07;;
65096;SDS011;51686;46.758;4.356;2022-11-20T11:26:35;14.93;;;7.63;;
65096;SDS011;51686;46.758;4.356;2022-11-20T11:29:24;14.70;;;8.02;;
65096;SDS011;51686;46.758;4.356;2022-11-20T11:32:42;13.60;;;7.00;;
65096;SDS011;51686;46.758;4.356;2022-11-20T11:36:26;14.45;;;7.43;;
65096;SDS011;51686;46.758;4.356;2022-11-20T11:39:32;12.32;;;6.18;;
65096;SDS011;51686;46.758;4.356;2022-11-20T11:43:25;12.60;;;6.10;;
65096;SDS011;51686;46.758;4.356;2022-11-20T11:46:59;12.63;;;5.80;;
65096;SDS011;51686;46.758;4.356;2022-11-20T12:06:12;13.43;;;5.78;;
65096;SDS011;51686;46.758;4.356;2022-11-20T12:09:18;11.27;;;5.55;;
65096;SDS011;51686;46.758;4.356;2022-11-20T12:12:33;10.75;;;5.07;;
65096;SDS011;51686;46.758;4.356;2022-11-20T12:15:44;10.88;;;5.18;;
65096;SDS011;51686;46.758;4.356;2022-11-20T12:19:15;10.43;;;4.88;;
65096;SDS011;51686;46.758;4.356;2022-11-20T12:22:48;9.95;;;4.90;;
65096;SDS011;51686;46.758;4.356;2022-11-20T12:30:14;10.43;;;4.45;;
65096;SDS011;51686;46.758;4.356;2022-11-20T13:18:12;7.10;;;3.22;;
65096;SDS011;51686;46.758;4.356;2022-11-20T13:21:53;6.72;;;2.85;;
65096;SDS011;51686;46.758;4.356;2022-11-20T13:32:51;5.85;;;2.50;;
65096;SDS011;51686;46.758;4.356;2022-11-20T13:40:21;5.60;;;2.40;;
65096;SDS011;51686;46.758;4.356;2022-11-20T13:43:35;6.60;;;2.58;;
65096;SDS011;51686;46.758;4.356;2022-11-20T13:46:37;5.20;;;2.28;;
65096;SDS011;51686;46.758;4.356;2022-11-20T13:49:38;6.03;;;2.20;;
65096;SDS011;51686;46.758;4.356;2022-11-20T13:56:16;6.40;;;2.40;;
65096;SDS011;51686;46.758;4.356;2022-11-20T13:59:31;5.38;;;2.20;;
65096;SDS011;51686;46.758;4.356;2022-11-20T14:02:23;5.93;;;2.20;;
65096;SDS011;51686;46.758;4.356;2022-11-20T14:08:23;5.57;;;2.38;;
65096;SDS011;51686;46.758;4.356;2022-11-20T14:14:18;6.38;;;2.42;;
65096;SDS011;51686;46.758;4.356;2022-11-20T14:17:21;5.18;;;2.00;;
65096;SDS011;51686;46.758;4.356;2022-11-20T14:20:11;6.40;;;2.28;;
65096;SDS011;51686;46.758;4.356;2022-11-20T14:23:10;5.45;;;2.15;;
65096;SDS011;51686;46.758;4.356;2022-11-20T14:26:02;4.82;;;2.28;;
65096;SDS011;51686;46.758;4.356;2022-11-20T14:28:49;5.60;;;2.50;;
65096;SDS011;51686;46.758;4.356;2022-11-20T14:31:37;5.70;;;2.40;;
65096;SDS011;51686;46.758;4.356;2022-11-20T14:34:25;6.53;;;2.70;;
65096;SDS011;51686;46.758;4.356;2022-11-20T14:37:24;6.30;;;2.50;;
65096;SDS011;51686;46.758;4.356;2022-11-20T14:40:32;5.90;;;2.60;;
65096;SDS011;51686;46.758;4.356;2022-11-20T14:43:29;6.22;;;2.90;;
65096;SDS011;51686;46.758;4.356;2022-11-20T14:46:22;6.32;;;3.00;;
65096;SDS011;51686;46.758;4.356;2022-11-20T14:49:10;5.88;;;2.65;;
65096;SDS011;51686;46.758;4.356;2022-11-20T14:52:02;7.43;;;3.08;;
65096;SDS011;51686;46.758;4.356;2022-11-20T14:55:04;7.25;;;3.35;;
65096;SDS011;51686;46.758;4.356;2022-11-20T14:58:00;6.68;;;3.05;;
65096;SDS011;51686;46.758;4.356;2022-11-20T15:00:54;6.18;;;2.92;;
65096;SDS011;51686;46.758;4.356;2022-11-20T15:03:42;6.63;;;3.20;;
65096;SDS011;51686;46.758;4.356;2022-11-20T15:06:34;7.63;;;3.22;;
65096;SDS011;51686;46.758;4.356;2022-11-20T15:09:22;7.25;;;2.88;;
65096;SDS011;51686;46.758;4.356;2022-11-20T15:12:15;6.70;;;3.10;;
65096;SDS011;51686;46.758;4.356;2022-11-20T15:15:04;6.63;;;2.83;;
65096;SDS011;51686;46.758;4.356;2022-11-20T15:17:52;7.13;;;2.95;;
65096;SDS011;51686;46.758;4.356;2022-11-20T15:20:40;6.90;;;2.97;;
65096;SDS011;51686;46.758;4.356;2022-11-20T15:23:27;6.18;;;2.75;;
65096;SDS011;51686;46.758;4.356;2022-11-20T15:26:24;6.50;;;2.90;;
65096;SDS011;51686;46.758;4.356;2022-11-20T15:29:22;5.60;;;2.60;;
65096;SDS011;51686;46.758;4.356;2022-11-20T15:32:15;6.60;;;2.90;;
65096;SDS011;51686;46.758;4.356;2022-11-20T15:35:02;6.60;;;2.70;;
65096;SDS011;51686;46.758;4.356;2022-11-20T15:37:54;8.80;;;3.05;;
65096;SDS011;51686;46.758;4.356;2022-11-20T15:40:46;6.22;;;2.45;;
65096;SDS011;51686;46.758;4.356;2022-11-20T15:43:34;7.28;;;3.15;;
65096;SDS011;51686;46.758;4.356;2022-11-20T15:46:36;5.95;;;2.78;;
65096;SDS011;51686;46.758;4.356;2022-11-20T15:49:30;7.05;;;3.10;;
65096;SDS011;51686;46.758;4.356;2022-11-20T15:52:18;7.28;;;2.83;;
65096;SDS011;51686;46.758;4.356;2022-11-20T15:55:08;7.47;;;2.90;;
65096;SDS011;51686;46.758;4.356;2022-11-20T15:57:56;6.25;;;2.60;;
65096;SDS011;51686;46.758;4.356;2022-11-20T16:00:43;6.25;;;2.78;;
65096;SDS011;51686;46.758;4.356;2022-11-20T16:03:31;5.93;;;2.60;;
65096;SDS011;51686;46.758;4.356;2022-11-20T16:06:29;5.43;;;2.70;;
65096;SDS011;51686;46.758;4.356;2022-11-20T16:09:18;6.95;;;3.03;;
65096;SDS011;51686;46.758;4.356;2022-11-20T16:12:08;6.95;;;2.97;;
65096;SDS011;51686;46.758;4.356;2022-11-20T16:15:19;6.22;;;2.55;;
65096;SDS011;51686;46.758;4.356;2022-11-20T16:18:24;5.78;;;2.75;;
65096;SDS011;51686;46.758;4.356;2022-11-20T16:21:14;7.03;;;2.83;;
65096;SDS011;51686;46.758;4.356;2022-11-20T16:24:02;7.47;;;2.83;;
65096;SDS011;51686;46.758;4.356;2022-11-20T16:26:50;6.55;;;2.70;;
65096;SDS011;51686;46.758;4.356;2022-11-20T16:29:37;5.97;;;2.50;;
65096;SDS011;51686;46.758;4.356;2022-11-20T16:32:24;6.25;;;2.58;;
65096;SDS011;51686;46.758;4.356;2022-11-20T16:35:11;6.75;;;2.83;;
65096;SDS011;51686;46.758;4.356;2022-11-20T16:38:02;5.78;;;2.58;;
65096;SDS011;51686;46.758;4.356;2022-11-20T16:40:51;6.05;;;2.50;;
65096;SDS011;51686;46.758;4.356;2022-11-20T16:43:45;6.40;;;2.70;;
65096;SDS011;51686;46.758;4.356;2022-11-20T16:46:33;5.03;;;2.33;;
65096;SDS011;51686;46.758;4.356;2022-11-20T16:49:21;5.45;;;2.50;;
65096;SDS011;51686;46.758;4.356;2022-11-20T16:52:07;6.13;;;2.30;;
65096;SDS011;51686;46.758;4.356;2022-11-20T16:54:54;5.38;;;2.22;;
65096;SDS011;51686;46.758;4.356;2022-11-20T16:57:41;4.32;;;1.95;;
65096;SDS011;51686;46.758;4.356;2022-11-20T17:00:28;4.97;;;2.17;;
65096;SDS011;51686;46.758;4.356;2022-11-20T17:03:15;5.90;;;2.50;;
65096;SDS011;51686;46.758;4.356;2022-11-20T17:06:12;4.57;;;2.28;;
65096;SDS011;51686;46.758;4.356;2022-11-20T17:09:00;5.47;;;2.40;;
65096;SDS011;51686;46.758;4.356;2022-11-20T17:11:48;4.93;;;2.08;;
65096;SDS011;51686;46.758;4.356;2022-11-20T17:14:37;4.75;;;2.10;;
65096;SDS011;51686;46.758;4.356;2022-11-20T17:17:24;4.40;;;2.10;;
65096;SDS011;51686;46.758;4.356;2022-11-20T17:20:11;4.78;;;2.08;;
65096;SDS011;51686;46.758;4.356;2022-11-20T17:23:01;4.85;;;2.10;;
65096;SDS011;51686;46.758;4.356;2022-11-20T17:28:35;4.35;;;2.05;;
65096;SDS011;51686;46.758;4.356;2022-11-20T17:31:24;6.35;;;2.40;;
65096;SDS011;51686;46.758;4.356;2022-11-20T17:34:17;5.13;;;2.25;;
65096;SDS011;51686;46.758;4.356;2022-11-20T17:37:09;5.90;;;2.20;;
65096;SDS011;51686;46.758;4.356;2022-11-20T17:39:57;5.15;;;2.40;;
65096;SDS011;51686;46.758;4.356;2022-11-20T17:43:03;5.93;;;2.30;;
65096;SDS011;51686;46.758;4.356;2022-11-20T17:45:53;4.82;;;1.90;;
65096;SDS011;51686;46.758;4.356;2022-11-20T17:48:44;4.72;;;1.90;;
65096;SDS011;51686;46.758;4.356;2022-11-20T17:51:32;6.10;;;2.08;;
65096;SDS011;51686;46.758;4.356;2022-11-20T17:54:20;5.82;;;2.10;;
65096;SDS011;51686;46.758;4.356;2022-11-20T17:57:28;5.53;;;2.33;;
65096;SDS011;51686;46.758;4.356;2022-11-20T18:00:44;5.25;;;2.30;;
65096;SDS011;51686;46.758;4.356;2022-11-20T18:03:45;5.13;;;2.08;;
65096;SDS011;51686;46.758;4.356;2022-11-20T18:06:32;6.57;;;2.53;;
65096;SDS011;51686;46.758;4.356;2022-11-20T18:09:19;4.53;;;2.00;;
65096;SDS011;51686;46.758;4.356;2022-11-20T18:12:07;5.43;;;2.13;;
65096;SDS011;51686;46.758;4.356;2022-11-20T18:15:03;4.65;;;1.80;;
65096;SDS011;51686;46.758;4.356;2022-11-20T18:18:04;3.97;;;1.90;;
65096;SDS011;51686;46.758;4.356;2022-11-20T18:21:08;4.75;;;2.20;;
65096;SDS011;51686;46.758;4.356;2022-11-20T18:23:59;5.53;;;2.20;;
65096;SDS011;51686;46.758;4.356;2022-11-20T18:26:46;3.60;;;1.92;;
65096;SDS011;51686;46.758;4.356;2022-11-20T18:29:35;5.20;;;1.97;;
65096;SDS011;51686;46.758;4.356;2022-11-20T18:32:22;5.18;;;2.08;;
65096;SDS011;51686;46.758;4.356;2022-11-20T18:35:20;5.30;;;2.20;;
65096;SDS011;51686;46.758;4.356;2022-11-20T18:38:17;5.07;;;2.30;;
65096;SDS011;51686;46.758;4.356;2022-11-20T18:41:04;5.88;;;2.50;;
65096;SDS011;51686;46.758;4.356;2022-11-20T18:43:51;5.40;;;2.47;;
65096;SDS011;51686;46.758;4.356;2022-11-20T18:47:04;5.35;;;2.40;;
65096;SDS011;51686;46.758;4.356;2022-11-20T18:50:07;5.75;;;2.80;;
65096;SDS011;51686;46.758;4.356;2022-11-20T18:53:25;6.03;;;2.83;;
65096;SDS011;51686;46.758;4.356;2022-11-20T18:56:27;6.25;;;2.50;;
65096;SDS011;51686;46.758;4.356;2022-11-20T18:59:34;6.32;;;2.65;;
65096;SDS011;51686;46.758;4.356;2022-11-20T19:10:01;6.18;;;2.60;;
65096;SDS011;51686;46.758;4.356;2022-11-20T19:13:21;7.10;;;2.75;;
65096;SDS011;51686;46.758;4.356;2022-11-20T19:16:14;5.53;;;2.50;;
65096;SDS011;51686;46.758;4.356;2022-11-20T19:19:23;7.10;;;2.90;;
65096;SDS011;51686;46.758;4.356;2022-11-20T19:22:27;6.45;;;2.70;;
65096;SDS011;51686;46.758;4.356;2022-11-20T19:25:29;5.85;;;2.70;;
65096;SDS011;51686;46.758;4.356;2022-11-20T19:28:34;4.63;;;2.33;;
65096;SDS011;51686;46.758;4.356;2022-11-20T19:31:42;6.57;;;2.75;;
65096;SDS011;51686;46.758;4.356;2022-11-20T19:37:19;6.65;;;2.90;;
65096;SDS011;51686;46.758;4.356;2022-11-20T19:40:34;6.55;;;2.90;;